sensor_id;sensor_type;location;lat;lon;timestamp;P1;durP1;ratioP1;P2;durP2;ratioP2
72924;SDS011;61070;50.794;7.054;2024-01-06T00:00:50;2.70;;;1.15;;
72924;SDS011;61070;50.794;7.054;2024-01-06T00:01:51;2.33;;;1.17;;
72924;SDS011;61070;50.794;7.054;2024-01-06T00:02:51;3.53;;;1.55;;
72924;SDS011;61070;50.794;7.054;2024-01-06T00:03:51;1.83;;;1.20;;
72924;SDS011;61070;50.794;7.054;2024-01-06T00:04:51;2.58;;;1.20;;
72924;SDS011;61070;50.794;7.054;2024-01-06T00:05:52;2.60;;;1.02;;
72924;SDS011;61070;50.794;7.054;2024-01-06T00:06:52;2.72;;;0.98;;
72924;SDS011;61070;50.794;7.054;2024-01-06T00:07:52;3.15;;;1.17;;
72924;SDS011;61070;50.794;7.054;2024-01-06T00:08:53;2.92;;;1.10;;
72924;SDS011;61070;50.794;7.054;2024-01-06T00:09:54;3.45;;;1.10;;
72924;SDS011;61070;50.794;7.054;2024-01-06T00:10:55;1.85;;;1.13;;
72924;SDS011;61070;50.794;7.054;2024-01-06T00:11:55;3.55;;;1.33;;
72924;SDS011;61070;50.794;7.054;2024-01-06T00:12:55;1.55;;;1.20;;
72924;SDS011;61070;50.794;7.054;2024-01-06T00:13:56;5.88;;;1.25;;
72924;SDS011;61070;50.794;7.054;2024-01-06T00:14:56;4.72;;;1.42;;
72924;SDS011;61070;50.794;7.054;2024-01-06T00:15:56;1.20;;;0.90;;
72924;SDS011;61070;50.794;7.054;2024-01-06T00:16:56;1.88;;;0.90;;
72924;SDS011;61070;50.794;7.054;2024-01-06T00:17:57;1.65;;;1.05;;
72924;SDS011;61070;50.794;7.054;2024-01-06T00:18:57;2.05;;;1.10;;
72924;SDS011;61070;50.794;7.054;2024-01-06T00:19:59;1.83;;;1.10;;
72924;SDS011;61070;50.794;7.054;2024-01-06T00:21:02;2.78;;;1.05;;
72924;SDS011;61070;50.794;7.054;2024-01-06T00:22:02;2.55;;;1.00;;
72924;SDS011;61070;50.794;7.054;2024-01-06T00:23:03;5.00;;;1.27;;
72924;SDS011;61070;50.794;7.054;2024-01-06T00:24:03;5.80;;;1.70;;
72924;SDS011;61070;50.794;7.054;2024-01-06T00:25:04;1.90;;;1.23;;
72924;SDS011;61070;50.794;7.054;2024-01-06T00:26:04;3.33;;;1.15;;
72924;SDS011;61070;50.794;7.054;2024-01-06T00:27:05;2.00;;;1.17;;
72924;SDS011;61070;50.794;7.054;2024-01-06T00:28:05;2.03;;;1.20;;
72924;SDS011;61070;50.794;7.054;2024-01-06T00:29:05;3.60;;;1.35;;
72924;SDS011;61070;50.794;7.054;2024-01-06T00:30:06;2.05;;;1.13;;
72924;SDS011;61070;50.794;7.054;2024-01-06T00:31:06;2.92;;;1.38;;
72924;SDS011;61070;50.794;7.054;2024-01-06T00:32:07;1.58;;;1.10;;
72924;SDS011;61070;50.794;7.054;2024-01-06T00:33:08;1.58;;;1.08;;
72924;SDS011;61070;50.794;7.054;2024-01-06T00:34:08;2.50;;;1.35;;
72924;SDS011;61070;50.794;7.054;2024-01-06T00:35:08;2.45;;;1.25;;
72924;SDS011;61070;50.794;7.054;2024-01-06T00:36:08;3.28;;;1.67;;
72924;SDS011;61070;50.794;7.054;2024-01-06T00:37:09;2.03;;;1.33;;
72924;SDS011;61070;50.794;7.054;2024-01-06T00:38:09;3.63;;;1.60;;
72924;SDS011;61070;50.794;7.054;2024-01-06T00:39:09;4.78;;;1.88;;
72924;SDS011;61070;50.794;7.054;2024-01-06T00:40:10;2.78;;;1.40;;
72924;SDS011;61070;50.794;7.054;2024-01-06T00:41:10;3.75;;;1.80;;
72924;SDS011;61070;50.794;7.054;2024-01-06T00:42:11;3.03;;;1.25;;
72924;SDS011;61070;50.794;7.054;2024-01-06T00:43:11;2.65;;;1.30;;
72924;SDS011;61070;50.794;7.054;2024-01-06T00:44:11;1.98;;;1.40;;
72924;SDS011;61070;50.794;7.054;2024-01-06T00:45:12;3.05;;;1.67;;
72924;SDS011;61070;50.794;7.054;2024-01-06T00:46:12;2.45;;;1.52;;
72924;SDS011;61070;50.794;7.054;2024-01-06T00:47:12;3.85;;;1.55;;
72924;SDS011;61070;50.794;7.054;2024-01-06T00:48:12;2.38;;;1.50;;
72924;SDS011;61070;50.794;7.054;2024-01-06T00:49:13;4.28;;;1.60;;
72924;SDS011;61070;50.794;7.054;2024-01-06T00:50:13;2.45;;;1.40;;
72924;SDS011;61070;50.794;7.054;2024-01-06T00:51:13;2.88;;;1.90;;
72924;SDS011;61070;50.794;7.054;2024-01-06T00:52:14;2.20;;;1.50;;
72924;SDS011;61070;50.794;7.054;2024-01-06T00:53:14;3.00;;;1.55;;
72924;SDS011;61070;50.794;7.054;2024-01-06T00:54:14;3.53;;;1.50;;
72924;SDS011;61070;50.794;7.054;2024-01-06T00:55:14;2.33;;;1.20;;
72924;SDS011;61070;50.794;7.054;2024-01-06T00:56:15;3.85;;;1.55;;
72924;SDS011;61070;50.794;7.054;2024-01-06T00:57:15;3.45;;;1.42;;
72924;SDS011;61070;50.794;7.054;2024-01-06T00:58:15;2.85;;;1.40;;
72924;SDS011;61070;50.794;7.054;2024-01-06T00:59:16;4.43;;;2.00;;
72924;SDS011;61070;50.794;7.054;2024-01-06T01:00:16;2.58;;;1.60;;
72924;SDS011;61070;50.794;7.054;2024-01-06T01:01:16;3.08;;;1.70;;
72924;SDS011;61070;50.794;7.054;2024-01-06T01:02:16;2.22;;;1.42;;
72924;SDS011;61070;50.794;7.054;2024-01-06T01:03:17;2.20;;;1.58;;
72924;SDS011;61070;50.794;7.054;2024-01-06T01:04:17;2.42;;;1.85;;
72924;SDS011;61070;50.794;7.054;2024-01-06T01:05:17;3.53;;;1.73;;
72924;SDS011;61070;50.794;7.054;2024-01-06T01:06:18;3.50;;;1.40;;
72924;SDS011;61070;50.794;7.054;2024-01-06T01:07:18;2.38;;;1.50;;
72924;SDS011;61070;50.794;7.054;2024-01-06T01:08:18;5.30;;;2.13;;
72924;SDS011;61070;50.794;7.054;2024-01-06T01:09:19;4.03;;;2.25;;
72924;SDS011;61070;50.794;7.054;2024-01-06T01:10:19;4.88;;;1.60;;
72924;SDS011;61070;50.794;7.054;2024-01-06T01:11:19;3.42;;;2.00;;
72924;SDS011;61070;50.794;7.054;2024-01-06T01:12:20;3.88;;;2.08;;
72924;SDS011;61070;50.794;7.054;2024-01-06T01:13:20;4.00;;;2.30;;
72924;SDS011;61070;50.794;7.054;2024-01-06T01:14:20;2.78;;;1.92;;
72924;SDS011;61070;50.794;7.054;2024-01-06T01:15:20;6.32;;;2.67;;
72924;SDS011;61070;50.794;7.054;2024-01-06T01:16:21;4.53;;;2.25;;
72924;SDS011;61070;50.794;7.054;2024-01-06T01:17:21;2.97;;;2.33;;
72924;SDS011;61070;50.794;7.054;2024-01-06T01:18:22;3.20;;;2.33;;
72924;SDS011;61070;50.794;7.054;2024-01-06T01:19:22;3.08;;;2.15;;
72924;SDS011;61070;50.794;7.054;2024-01-06T01:20:22;5.18;;;3.13;;
72924;SDS011;61070;50.794;7.054;2024-01-06T01:21:22;5.60;;;3.00;;
72924;SDS011;61070;50.794;7.054;2024-01-06T01:22:23;4.68;;;3.05;;
72924;SDS011;61070;50.794;7.054;2024-01-06T01:23:23;3.10;;;2.78;;
72924;SDS011;61070;50.794;7.054;2024-01-06T01:24:23;3.63;;;2.63;;
72924;SDS011;61070;50.794;7.054;2024-01-06T01:25:23;3.97;;;3.03;;
72924;SDS011;61070;50.794;7.054;2024-01-06T01:26:24;4.38;;;2.42;;
72924;SDS011;61070;50.794;7.054;2024-01-06T01:27:24;4.95;;;3.10;;
72924;SDS011;61070;50.794;7.054;2024-01-06T01:28:24;7.03;;;3.08;;
72924;SDS011;61070;50.794;7.054;2024-01-06T01:29:25;3.50;;;2.92;;
72924;SDS011;61070;50.794;7.054;2024-01-06T01:30:25;4.85;;;3.25;;
72924;SDS011;61070;50.794;7.054;2024-01-06T01:31:25;6.07;;;2.97;;
72924;SDS011;61070;50.794;7.054;2024-01-06T01:32:26;3.72;;;3.05;;
72924;SDS011;61070;50.794;7.054;2024-01-06T01:33:26;3.22;;;2.50;;
72924;SDS011;61070;50.794;7.054;2024-01-06T01:34:26;4.35;;;3.15;;
72924;SDS011;61070;50.794;7.054;2024-01-06T01:35:26;3.17;;;2.85;;
72924;SDS011;61070;50.794;7.054;2024-01-06T01:36:26;5.93;;;2.80;;
72924;SDS011;61070;50.794;7.054;2024-01-06T01:37:27;5.40;;;2.65;;
72924;SDS011;61070;50.794;7.054;2024-01-06T01:38:27;3.08;;;2.72;;
72924;SDS011;61070;50.794;7.054;2024-01-06T01:39:27;8.43;;;3.75;;
72924;SDS011;61070;50.794;7.054;2024-01-06T01:40:28;5.38;;;3.45;;
72924;SDS011;61070;50.794;7.054;2024-01-06T01:41:28;7.97;;;2.90;;
72924;SDS011;61070;50.794;7.054;2024-01-06T01:42:28;4.78;;;3.20;;
72924;SDS011;61070;50.794;7.054;2024-01-06T01:43:28;5.72;;;3.00;;
72924;SDS011;61070;50.794;7.054;2024-01-06T01:44:29;6.97;;;2.85;;
72924;SDS011;61070;50.794;7.054;2024-01-06T01:45:29;4.18;;;2.83;;
72924;SDS011;61070;50.794;7.054;2024-01-06T01:46:29;3.97;;;2.50;;
72924;SDS011;61070;50.794;7.054;2024-01-06T01:47:30;4.47;;;2.42;;
72924;SDS011;61070;50.794;7.054;2024-01-06T01:48:31;5.00;;;2.80;;
72924;SDS011;61070;50.794;7.054;2024-01-06T01:49:33;4.05;;;2.53;;
72924;SDS011;61070;50.794;7.054;2024-01-06T01:50:34;3.65;;;2.40;;
72924;SDS011;61070;50.794;7.054;2024-01-06T01:51:34;3.75;;;2.53;;
72924;SDS011;61070;50.794;7.054;2024-01-06T01:52:36;7.68;;;2.30;;
72924;SDS011;61070;50.794;7.054;2024-01-06T01:53:36;5.28;;;2.92;;
72924;SDS011;61070;50.794;7.054;2024-01-06T01:54:37;3.47;;;2.50;;
72924;SDS011;61070;50.794;7.054;2024-01-06T01:55:37;2.63;;;2.28;;
72924;SDS011;61070;50.794;7.054;2024-01-06T01:56:38;3.67;;;2.30;;
72924;SDS011;61070;50.794;7.054;2024-01-06T01:57:39;3.60;;;2.50;;
72924;SDS011;61070;50.794;7.054;2024-01-06T01:58:40;4.10;;;2.30;;
72924;SDS011;61070;50.794;7.054;2024-01-06T01:59:41;2.75;;;1.98;;
72924;SDS011;61070;50.794;7.054;2024-01-06T02:00:41;4.32;;;2.63;;
72924;SDS011;61070;50.794;7.054;2024-01-06T02:01:42;5.45;;;2.58;;
72924;SDS011;61070;50.794;7.054;2024-01-06T02:02:43;4.07;;;2.90;;
72924;SDS011;61070;50.794;7.054;2024-01-06T02:03:43;4.82;;;2.40;;
72924;SDS011;61070;50.794;7.054;2024-01-06T02:04:44;3.80;;;2.70;;
72924;SDS011;61070;50.794;7.054;2024-01-06T02:05:45;3.03;;;2.53;;
72924;SDS011;61070;50.794;7.054;2024-01-06T02:06:45;3.17;;;2.47;;
72924;SDS011;61070;50.794;7.054;2024-01-06T02:07:45;2.97;;;2.53;;
72924;SDS011;61070;50.794;7.054;2024-01-06T02:08:47;3.13;;;2.28;;
72924;SDS011;61070;50.794;7.054;2024-01-06T02:09:47;5.38;;;2.00;;
72924;SDS011;61070;50.794;7.054;2024-01-06T02:10:48;3.85;;;2.63;;
72924;SDS011;61070;50.794;7.054;2024-01-06T02:11:48;3.83;;;2.20;;
72924;SDS011;61070;50.794;7.054;2024-01-06T02:12:49;7.63;;;2.40;;
72924;SDS011;61070;50.794;7.054;2024-01-06T02:13:51;3.63;;;2.20;;
72924;SDS011;61070;50.794;7.054;2024-01-06T02:14:51;2.10;;;1.90;;
72924;SDS011;61070;50.794;7.054;2024-01-06T02:15:52;4.15;;;2.47;;
72924;SDS011;61070;50.794;7.054;2024-01-06T02:16:53;2.70;;;1.92;;
72924;SDS011;61070;50.794;7.054;2024-01-06T02:17:53;4.28;;;2.35;;
72924;SDS011;61070;50.794;7.054;2024-01-06T02:18:54;4.50;;;1.95;;
72924;SDS011;61070;50.794;7.054;2024-01-06T02:19:54;2.00;;;1.70;;
72924;SDS011;61070;50.794;7.054;2024-01-06T02:20:56;2.13;;;1.73;;
72924;SDS011;61070;50.794;7.054;2024-01-06T02:21:58;2.50;;;1.80;;
72924;SDS011;61070;50.794;7.054;2024-01-06T02:22:59;3.15;;;1.67;;
72924;SDS011;61070;50.794;7.054;2024-01-06T02:24:00;2.50;;;1.85;;
72924;SDS011;61070;50.794;7.054;2024-01-06T02:25:01;3.10;;;2.10;;
72924;SDS011;61070;50.794;7.054;2024-01-06T02:26:02;6.03;;;2.47;;
72924;SDS011;61070;50.794;7.054;2024-01-06T02:27:03;3.75;;;2.10;;
72924;SDS011;61070;50.794;7.054;2024-01-06T02:28:03;5.28;;;2.45;;
72924;SDS011;61070;50.794;7.054;2024-01-06T02:29:04;2.28;;;2.00;;
72924;SDS011;61070;50.794;7.054;2024-01-06T02:30:05;4.03;;;2.30;;
72924;SDS011;61070;50.794;7.054;2024-01-06T02:31:06;3.65;;;2.70;;
72924;SDS011;61070;50.794;7.054;2024-01-06T02:32:06;5.32;;;2.85;;
72924;SDS011;61070;50.794;7.054;2024-01-06T02:33:06;3.95;;;2.55;;
72924;SDS011;61070;50.794;7.054;2024-01-06T02:34:07;4.50;;;2.80;;
72924;SDS011;61070;50.794;7.054;2024-01-06T02:35:07;3.95;;;2.53;;
72924;SDS011;61070;50.794;7.054;2024-01-06T02:36:08;3.83;;;3.00;;
72924;SDS011;61070;50.794;7.054;2024-01-06T02:37:08;6.47;;;3.42;;
72924;SDS011;61070;50.794;7.054;2024-01-06T02:38:08;4.15;;;3.05;;
72924;SDS011;61070;50.794;7.054;2024-01-06T02:39:09;4.85;;;3.38;;
72924;SDS011;61070;50.794;7.054;2024-01-06T02:40:10;6.97;;;3.58;;
72924;SDS011;61070;50.794;7.054;2024-01-06T02:41:11;8.23;;;3.33;;
72924;SDS011;61070;50.794;7.054;2024-01-06T02:42:11;6.00;;;4.20;;
72924;SDS011;61070;50.794;7.054;2024-01-06T02:43:11;5.13;;;3.25;;
72924;SDS011;61070;50.794;7.054;2024-01-06T02:44:12;3.97;;;3.22;;
72924;SDS011;61070;50.794;7.054;2024-01-06T02:45:13;7.63;;;4.00;;
72924;SDS011;61070;50.794;7.054;2024-01-06T02:46:14;7.15;;;3.72;;
72924;SDS011;61070;50.794;7.054;2024-01-06T02:47:14;7.40;;;4.63;;
72924;SDS011;61070;50.794;7.054;2024-01-06T02:48:15;5.68;;;3.83;;
72924;SDS011;61070;50.794;7.054;2024-01-06T02:49:15;5.68;;;4.50;;
72924;SDS011;61070;50.794;7.054;2024-01-06T02:50:16;7.30;;;4.70;;
72924;SDS011;61070;50.794;7.054;2024-01-06T02:51:16;11.55;;;4.72;;
72924;SDS011;61070;50.794;7.054;2024-01-06T02:52:16;8.65;;;5.28;;
72924;SDS011;61070;50.794;7.054;2024-01-06T02:53:16;6.47;;;4.63;;
72924;SDS011;61070;50.794;7.054;2024-01-06T02:54:17;8.82;;;5.30;;
72924;SDS011;61070;50.794;7.054;2024-01-06T02:55:17;8.95;;;6.05;;
72924;SDS011;61070;50.794;7.054;2024-01-06T02:56:17;8.00;;;5.05;;
72924;SDS011;61070;50.794;7.054;2024-01-06T02:57:17;7.97;;;5.65;;
72924;SDS011;61070;50.794;7.054;2024-01-06T02:58:18;8.35;;;5.28;;
72924;SDS011;61070;50.794;7.054;2024-01-06T02:59:18;10.77;;;5.20;;
72924;SDS011;61070;50.794;7.054;2024-01-06T03:00:18;8.90;;;5.60;;
72924;SDS011;61070;50.794;7.054;2024-01-06T03:01:19;8.55;;;5.30;;
72924;SDS011;61070;50.794;7.054;2024-01-06T03:02:19;8.25;;;5.45;;
72924;SDS011;61070;50.794;7.054;2024-01-06T03:03:19;7.38;;;5.35;;
72924;SDS011;61070;50.794;7.054;2024-01-06T03:04:19;8.57;;;5.90;;
72924;SDS011;61070;50.794;7.054;2024-01-06T03:05:20;8.63;;;5.90;;
72924;SDS011;61070;50.794;7.054;2024-01-06T03:06:20;9.02;;;5.93;;
72924;SDS011;61070;50.794;7.054;2024-01-06T03:07:20;9.63;;;6.25;;
72924;SDS011;61070;50.794;7.054;2024-01-06T03:08:21;10.07;;;6.47;;
72924;SDS011;61070;50.794;7.054;2024-01-06T03:09:22;10.00;;;6.22;;
72924;SDS011;61070;50.794;7.054;2024-01-06T03:10:23;11.00;;;6.78;;
72924;SDS011;61070;50.794;7.054;2024-01-06T03:11:23;9.65;;;5.97;;
72924;SDS011;61070;50.794;7.054;2024-01-06T03:12:23;11.55;;;5.93;;
72924;SDS011;61070;50.794;7.054;2024-01-06T03:13:23;9.18;;;6.10;;
72924;SDS011;61070;50.794;7.054;2024-01-06T03:14:24;11.38;;;6.57;;
72924;SDS011;61070;50.794;7.054;2024-01-06T03:15:24;8.60;;;6.05;;
72924;SDS011;61070;50.794;7.054;2024-01-06T03:16:25;12.57;;;6.53;;
72924;SDS011;61070;50.794;7.054;2024-01-06T03:17:25;9.77;;;6.57;;
72924;SDS011;61070;50.794;7.054;2024-01-06T03:18:25;7.28;;;5.32;;
72924;SDS011;61070;50.794;7.054;2024-01-06T03:19:25;10.10;;;6.60;;
72924;SDS011;61070;50.794;7.054;2024-01-06T03:20:27;11.35;;;6.50;;
72924;SDS011;61070;50.794;7.054;2024-01-06T03:21:27;9.45;;;6.28;;
72924;SDS011;61070;50.794;7.054;2024-01-06T03:22:27;9.95;;;6.55;;
72924;SDS011;61070;50.794;7.054;2024-01-06T03:23:28;11.73;;;6.32;;
72924;SDS011;61070;50.794;7.054;2024-01-06T03:24:28;10.23;;;6.30;;
72924;SDS011;61070;50.794;7.054;2024-01-06T03:25:28;11.07;;;5.80;;
72924;SDS011;61070;50.794;7.054;2024-01-06T03:26:28;9.52;;;6.22;;
72924;SDS011;61070;50.794;7.054;2024-01-06T03:27:29;10.38;;;6.28;;
72924;SDS011;61070;50.794;7.054;2024-01-06T03:28:29;10.60;;;6.40;;
72924;SDS011;61070;50.794;7.054;2024-01-06T03:29:29;11.95;;;7.32;;
72924;SDS011;61070;50.794;7.054;2024-01-06T03:30:29;11.23;;;7.32;;
72924;SDS011;61070;50.794;7.054;2024-01-06T03:31:30;13.27;;;7.00;;
72924;SDS011;61070;50.794;7.054;2024-01-06T03:32:30;11.05;;;7.00;;
72924;SDS011;61070;50.794;7.054;2024-01-06T03:33:30;11.15;;;7.30;;
72924;SDS011;61070;50.794;7.054;2024-01-06T03:34:30;10.15;;;6.07;;
72924;SDS011;61070;50.794;7.054;2024-01-06T03:35:31;10.98;;;6.93;;
72924;SDS011;61070;50.794;7.054;2024-01-06T03:36:31;9.38;;;6.40;;
72924;SDS011;61070;50.794;7.054;2024-01-06T03:37:32;11.57;;;6.65;;
72924;SDS011;61070;50.794;7.054;2024-01-06T03:38:33;9.32;;;7.07;;
72924;SDS011;61070;50.794;7.054;2024-01-06T03:39:33;11.85;;;7.60;;
72924;SDS011;61070;50.794;7.054;2024-01-06T03:40:34;11.32;;;7.25;;
72924;SDS011;61070;50.794;7.054;2024-01-06T03:41:34;11.68;;;7.68;;
72924;SDS011;61070;50.794;7.054;2024-01-06T03:42:34;11.70;;;7.05;;
72924;SDS011;61070;50.794;7.054;2024-01-06T03:43:36;12.65;;;7.30;;
72924;SDS011;61070;50.794;7.054;2024-01-06T03:44:36;10.30;;;7.00;;
72924;SDS011;61070;50.794;7.054;2024-01-06T03:45:37;10.57;;;7.30;;
72924;SDS011;61070;50.794;7.054;2024-01-06T03:46:37;12.43;;;6.82;;
72924;SDS011;61070;50.794;7.054;2024-01-06T03:47:37;11.60;;;7.03;;
72924;SDS011;61070;50.794;7.054;2024-01-06T03:48:38;13.73;;;8.02;;
72924;SDS011;61070;50.794;7.054;2024-01-06T03:49:39;12.70;;;7.95;;
72924;SDS011;61070;50.794;7.054;2024-01-06T03:50:39;12.43;;;7.57;;
72924;SDS011;61070;50.794;7.054;2024-01-06T03:51:39;13.35;;;7.53;;
72924;SDS011;61070;50.794;7.054;2024-01-06T03:52:39;12.00;;;7.57;;
72924;SDS011;61070;50.794;7.054;2024-01-06T03:53:40;14.65;;;8.70;;
72924;SDS011;61070;50.794;7.054;2024-01-06T03:54:40;10.70;;;7.32;;
72924;SDS011;61070;50.794;7.054;2024-01-06T03:55:41;11.63;;;6.88;;
72924;SDS011;61070;50.794;7.054;2024-01-06T03:56:41;12.73;;;7.03;;
72924;SDS011;61070;50.794;7.054;2024-01-06T03:57:41;11.50;;;7.50;;
72924;SDS011;61070;50.794;7.054;2024-01-06T03:58:42;13.48;;;8.43;;
72924;SDS011;61070;50.794;7.054;2024-01-06T03:59:42;12.05;;;8.40;;
72924;SDS011;61070;50.794;7.054;2024-01-06T04:00:42;12.57;;;8.23;;
72924;SDS011;61070;50.794;7.054;2024-01-06T04:01:43;12.45;;;8.30;;
72924;SDS011;61070;50.794;7.054;2024-01-06T04:02:43;13.25;;;8.25;;
72924;SDS011;61070;50.794;7.054;2024-01-06T04:03:43;15.05;;;8.50;;
72924;SDS011;61070;50.794;7.054;2024-01-06T04:04:43;13.18;;;8.63;;
72924;SDS011;61070;50.794;7.054;2024-01-06T04:05:44;14.38;;;8.70;;
72924;SDS011;61070;50.794;7.054;2024-01-06T04:06:44;14.82;;;7.95;;
72924;SDS011;61070;50.794;7.054;2024-01-06T04:07:44;15.27;;;8.73;;
72924;SDS011;61070;50.794;7.054;2024-01-06T04:08:44;14.23;;;8.23;;
72924;SDS011;61070;50.794;7.054;2024-01-06T04:09:45;12.48;;;7.95;;
72924;SDS011;61070;50.794;7.054;2024-01-06T04:10:45;14.52;;;8.70;;
72924;SDS011;61070;50.794;7.054;2024-01-06T04:11:45;13.32;;;8.75;;
72924;SDS011;61070;50.794;7.054;2024-01-06T04:12:46;12.57;;;8.13;;
72924;SDS011;61070;50.794;7.054;2024-01-06T04:13:46;13.13;;;7.95;;
72924;SDS011;61070;50.794;7.054;2024-01-06T04:14:46;15.35;;;9.02;;
72924;SDS011;61070;50.794;7.054;2024-01-06T04:15:47;19.83;;;8.65;;
72924;SDS011;61070;50.794;7.054;2024-01-06T04:16:47;12.45;;;7.82;;
72924;SDS011;61070;50.794;7.054;2024-01-06T04:17:47;15.88;;;8.88;;
72924;SDS011;61070;50.794;7.054;2024-01-06T04:18:48;15.93;;;9.23;;
72924;SDS011;61070;50.794;7.054;2024-01-06T04:19:49;16.83;;;9.55;;
72924;SDS011;61070;50.794;7.054;2024-01-06T04:20:49;18.25;;;9.35;;
72924;SDS011;61070;50.794;7.054;2024-01-06T04:21:49;14.70;;;8.45;;
72924;SDS011;61070;50.794;7.054;2024-01-06T04:22:50;16.52;;;9.25;;
72924;SDS011;61070;50.794;7.054;2024-01-06T04:23:50;18.02;;;9.77;;
72924;SDS011;61070;50.794;7.054;2024-01-06T04:24:51;17.63;;;10.00;;
72924;SDS011;61070;50.794;7.054;2024-01-06T04:25:51;20.23;;;10.45;;
72924;SDS011;61070;50.794;7.054;2024-01-06T04:26:52;16.00;;;10.90;;
72924;SDS011;61070;50.794;7.054;2024-01-06T04:27:52;14.98;;;9.68;;
72924;SDS011;61070;50.794;7.054;2024-01-06T04:28:52;18.67;;;10.35;;
72924;SDS011;61070;50.794;7.054;2024-01-06T04:29:53;16.92;;;10.48;;
72924;SDS011;61070;50.794;7.054;2024-01-06T04:30:53;17.15;;;10.02;;
72924;SDS011;61070;50.794;7.054;2024-01-06T04:31:54;16.40;;;10.05;;
72924;SDS011;61070;50.794;7.054;2024-01-06T04:32:54;13.48;;;9.30;;
72924;SDS011;61070;50.794;7.054;2024-01-06T04:33:54;17.10;;;10.32;;
72924;SDS011;61070;50.794;7.054;2024-01-06T04:34:55;14.48;;;8.75;;
72924;SDS011;61070;50.794;7.054;2024-01-06T04:35:57;16.63;;;9.73;;
72924;SDS011;61070;50.794;7.054;2024-01-06T04:36:58;16.88;;;10.63;;
72924;SDS011;61070;50.794;7.054;2024-01-06T04:37:59;18.27;;;10.25;;
72924;SDS011;61070;50.794;7.054;2024-01-06T04:38:59;17.95;;;9.93;;
72924;SDS011;61070;50.794;7.054;2024-01-06T04:39:59;19.83;;;9.88;;
72924;SDS011;61070;50.794;7.054;2024-01-06T04:41:00;22.40;;;10.63;;
72924;SDS011;61070;50.794;7.054;2024-01-06T04:42:00;19.63;;;11.25;;
72924;SDS011;61070;50.794;7.054;2024-01-06T04:43:01;18.17;;;11.07;;
72924;SDS011;61070;50.794;7.054;2024-01-06T04:44:01;21.67;;;12.43;;
72924;SDS011;61070;50.794;7.054;2024-01-06T04:45:01;21.58;;;11.80;;
72924;SDS011;61070;50.794;7.054;2024-01-06T04:46:02;20.48;;;12.30;;
72924;SDS011;61070;50.794;7.054;2024-01-06T04:47:03;24.05;;;12.02;;
72924;SDS011;61070;50.794;7.054;2024-01-06T04:48:03;24.15;;;12.30;;
72924;SDS011;61070;50.794;7.054;2024-01-06T04:49:04;23.58;;;12.10;;
72924;SDS011;61070;50.794;7.054;2024-01-06T04:50:05;19.70;;;12.00;;
72924;SDS011;61070;50.794;7.054;2024-01-06T04:51:05;22.58;;;12.27;;
72924;SDS011;61070;50.794;7.054;2024-01-06T04:52:09;18.98;;;11.75;;
72924;SDS011;61070;50.794;7.054;2024-01-06T04:53:10;20.25;;;11.95;;
72924;SDS011;61070;50.794;7.054;2024-01-06T04:54:10;22.45;;;12.68;;
72924;SDS011;61070;50.794;7.054;2024-01-06T04:55:10;21.00;;;13.40;;
72924;SDS011;61070;50.794;7.054;2024-01-06T04:56:10;23.25;;;12.68;;
72924;SDS011;61070;50.794;7.054;2024-01-06T04:57:11;25.10;;;12.90;;
72924;SDS011;61070;50.794;7.054;2024-01-06T04:58:11;23.52;;;12.93;;
72924;SDS011;61070;50.794;7.054;2024-01-06T04:59:11;23.90;;;14.00;;
72924;SDS011;61070;50.794;7.054;2024-01-06T05:00:12;25.23;;;13.70;;
72924;SDS011;61070;50.794;7.054;2024-01-06T05:01:12;24.13;;;14.98;;
72924;SDS011;61070;50.794;7.054;2024-01-06T05:02:13;25.50;;;14.07;;
72924;SDS011;61070;50.794;7.054;2024-01-06T05:03:13;27.77;;;13.80;;
72924;SDS011;61070;50.794;7.054;2024-01-06T05:04:13;24.63;;;14.18;;
72924;SDS011;61070;50.794;7.054;2024-01-06T05:05:14;30.58;;;14.27;;
72924;SDS011;61070;50.794;7.054;2024-01-06T05:06:14;27.00;;;16.27;;
72924;SDS011;61070;50.794;7.054;2024-01-06T05:07:14;23.58;;;15.23;;
72924;SDS011;61070;50.794;7.054;2024-01-06T05:08:15;28.65;;;14.60;;
72924;SDS011;61070;50.794;7.054;2024-01-06T05:09:17;25.13;;;15.60;;
72924;SDS011;61070;50.794;7.054;2024-01-06T05:10:17;31.30;;;17.20;;
72924;SDS011;61070;50.794;7.054;2024-01-06T05:11:18;29.50;;;16.08;;
72924;SDS011;61070;50.794;7.054;2024-01-06T05:12:18;26.70;;;15.32;;
72924;SDS011;61070;50.794;7.054;2024-01-06T05:13:18;32.10;;;16.55;;
72924;SDS011;61070;50.794;7.054;2024-01-06T05:14:19;28.08;;;15.45;;
72924;SDS011;61070;50.794;7.054;2024-01-06T05:15:19;28.05;;;15.70;;
72924;SDS011;61070;50.794;7.054;2024-01-06T05:16:19;31.67;;;17.08;;
72924;SDS011;61070;50.794;7.054;2024-01-06T05:17:20;32.00;;;17.98;;
72924;SDS011;61070;50.794;7.054;2024-01-06T05:18:20;27.08;;;16.90;;
72924;SDS011;61070;50.794;7.054;2024-01-06T05:19:20;27.15;;;17.08;;
72924;SDS011;61070;50.794;7.054;2024-01-06T05:20:21;32.63;;;18.17;;
72924;SDS011;61070;50.794;7.054;2024-01-06T05:21:21;29.63;;;17.33;;
72924;SDS011;61070;50.794;7.054;2024-01-06T05:22:21;36.47;;;18.33;;
72924;SDS011;61070;50.794;7.054;2024-01-06T05:23:22;31.27;;;17.10;;
72924;SDS011;61070;50.794;7.054;2024-01-06T05:24:22;26.08;;;17.13;;
72924;SDS011;61070;50.794;7.054;2024-01-06T05:25:22;30.58;;;17.15;;
72924;SDS011;61070;50.794;7.054;2024-01-06T05:26:22;30.50;;;16.98;;
72924;SDS011;61070;50.794;7.054;2024-01-06T05:27:23;32.13;;;17.33;;
72924;SDS011;61070;50.794;7.054;2024-01-06T05:28:23;27.33;;;17.13;;
72924;SDS011;61070;50.794;7.054;2024-01-06T05:29:23;30.48;;;17.08;;
72924;SDS011;61070;50.794;7.054;2024-01-06T05:30:25;26.48;;;16.90;;
72924;SDS011;61070;50.794;7.054;2024-01-06T05:31:26;26.30;;;15.02;;
72924;SDS011;61070;50.794;7.054;2024-01-06T05:32:26;32.63;;;17.95;;
72924;SDS011;61070;50.794;7.054;2024-01-06T05:33:27;34.10;;;17.25;;
72924;SDS011;61070;50.794;7.054;2024-01-06T05:34:27;28.45;;;17.17;;
72924;SDS011;61070;50.794;7.054;2024-01-06T05:35:27;31.38;;;16.52;;
72924;SDS011;61070;50.794;7.054;2024-01-06T05:36:27;31.13;;;17.00;;
72924;SDS011;61070;50.794;7.054;2024-01-06T05:37:28;31.60;;;16.95;;
72924;SDS011;61070;50.794;7.054;2024-01-06T05:38:28;33.55;;;17.58;;
72924;SDS011;61070;50.794;7.054;2024-01-06T05:39:28;32.47;;;16.83;;
72924;SDS011;61070;50.794;7.054;2024-01-06T05:40:28;33.40;;;18.08;;
72924;SDS011;61070;50.794;7.054;2024-01-06T05:41:29;31.30;;;16.60;;
72924;SDS011;61070;50.794;7.054;2024-01-06T05:42:29;31.42;;;17.38;;
72924;SDS011;61070;50.794;7.054;2024-01-06T05:43:29;30.58;;;17.08;;
72924;SDS011;61070;50.794;7.054;2024-01-06T05:44:30;29.52;;;15.80;;
72924;SDS011;61070;50.794;7.054;2024-01-06T05:45:30;31.70;;;16.90;;
72924;SDS011;61070;50.794;7.054;2024-01-06T05:46:30;36.70;;;17.33;;
72924;SDS011;61070;50.794;7.054;2024-01-06T05:47:31;31.90;;;17.48;;
72924;SDS011;61070;50.794;7.054;2024-01-06T05:48:31;27.73;;;16.10;;
72924;SDS011;61070;50.794;7.054;2024-01-06T05:49:31;35.28;;;17.27;;
72924;SDS011;61070;50.794;7.054;2024-01-06T05:50:32;27.98;;;16.42;;
72924;SDS011;61070;50.794;7.054;2024-01-06T05:51:32;29.40;;;16.48;;
72924;SDS011;61070;50.794;7.054;2024-01-06T05:52:32;30.17;;;17.13;;
72924;SDS011;61070;50.794;7.054;2024-01-06T05:53:32;27.95;;;16.90;;
72924;SDS011;61070;50.794;7.054;2024-01-06T05:54:33;34.53;;;18.75;;
72924;SDS011;61070;50.794;7.054;2024-01-06T05:55:33;30.95;;;17.00;;
72924;SDS011;61070;50.794;7.054;2024-01-06T05:56:33;30.52;;;16.88;;
72924;SDS011;61070;50.794;7.054;2024-01-06T05:57:34;37.60;;;18.30;;
72924;SDS011;61070;50.794;7.054;2024-01-06T05:58:34;33.28;;;18.30;;
72924;SDS011;61070;50.794;7.054;2024-01-06T05:59:34;31.38;;;17.75;;
72924;SDS011;61070;50.794;7.054;2024-01-06T06:00:35;31.10;;;18.25;;